sensor_id;sensor_type;location;lat;lon;timestamp;temperature;humidity
67157;SHT31;54086;50.126;8.710;2023-02-22T00:01:59;7.03;91.94
67157;SHT31;54086;50.126;8.710;2023-02-22T00:04:49;7.03;92.31
67157;SHT31;54086;50.126;8.710;2023-02-22T00:07:14;7.04;92.22
67157;SHT31;54086;50.126;8.710;2023-02-22T00:09:40;7.16;92.40
67157;SHT31;54086;50.126;8.710;2023-02-22T00:12:05;7.13;92.47
67157;SHT31;54086;50.126;8.710;2023-02-22T00:14:32;7.20;92.47
67157;SHT31;54086;50.126;8.710;2023-02-22T00:16:57;7.07;92.24
67157;SHT31;54086;50.126;8.710;2023-02-22T00:19:23;7.10;92.42
67157;SHT31;54086;50.126;8.710;2023-02-22T00:21:51;7.01;92.50
67157;SHT31;54086;50.126;8.710;2023-02-22T00:24:19;7.13;92.62
67157;SHT31;54086;50.126;8.710;2023-02-22T00:26:50;7.16;92.45
67157;SHT31;54086;50.126;8.710;2023-02-22T00:29:15;7.04;92.52
67157;SHT31;54086;50.126;8.710;2023-02-22T00:31:41;7.00;92.53
67157;SHT31;54086;50.126;8.710;2023-02-22T00:34:07;6.97;92.65
67157;SHT31;54086;50.126;8.710;2023-02-22T00:36:32;6.95;92.70
67157;SHT31;54086;50.126;8.710;2023-02-22T00:38:57;6.93;92.68
67157;SHT31;54086;50.126;8.710;2023-02-22T00:41:22;6.95;92.72
67157;SHT31;54086;50.126;8.710;2023-02-22T00:43:48;6.99;92.79
67157;SHT31;54086;50.126;8.710;2023-02-22T00:46:13;6.92;92.91
67157;SHT31;54086;50.126;8.710;2023-02-22T00:48:39;7.03;92.90
67157;SHT31;54086;50.126;8.710;2023-02-22T00:51:05;7.00;92.60
67157;SHT31;54086;50.126;8.710;2023-02-22T00:53:30;6.93;92.67
67157;SHT31;54086;50.126;8.710;2023-02-22T00:55:56;6.93;92.83
67157;SHT31;54086;50.126;8.710;2023-02-22T00:58:21;6.89;92.86
67157;SHT31;54086;50.126;8.710;2023-02-22T01:00:48;6.86;92.92
67157;SHT31;54086;50.126;8.710;2023-02-22T01:03:16;6.96;92.93
67157;SHT31;54086;50.126;8.710;2023-02-22T01:05:42;6.86;92.81
67157;SHT31;54086;50.126;8.710;2023-02-22T01:08:09;6.82;92.90
67157;SHT31;54086;50.126;8.710;2023-02-22T01:10:36;6.80;92.96
67157;SHT31;54086;50.126;8.710;2023-02-22T01:13:02;6.85;92.98
67157;SHT31;54086;50.126;8.710;2023-02-22T01:15:36;6.78;92.83
67157;SHT31;54086;50.126;8.710;2023-02-22T01:18:02;6.75;92.94
67157;SHT31;54086;50.126;8.710;2023-02-22T01:20:30;6.76;92.89
67157;SHT31;54086;50.126;8.710;2023-02-22T01:22:57;6.79;92.89
67157;SHT31;54086;50.126;8.710;2023-02-22T01:25:26;6.73;92.95
67157;SHT31;54086;50.126;8.710;2023-02-22T01:27:52;6.67;92.88
67157;SHT31;54086;50.126;8.710;2023-02-22T01:30:27;6.61;93.01
67157;SHT31;54086;50.126;8.710;2023-02-22T01:32:53;6.73;93.42
67157;SHT31;54086;50.126;8.710;2023-02-22T01:35:22;6.73;93.23
67157;SHT31;54086;50.126;8.710;2023-02-22T01:37:48;6.69;93.12
67157;SHT31;54086;50.126;8.710;2023-02-22T01:40:19;6.80;93.09
67157;SHT31;54086;50.126;8.710;2023-02-22T01:42:48;6.82;93.46
67157;SHT31;54086;50.126;8.710;2023-02-22T01:50:46;6.71;93.33
67157;SHT31;54086;50.126;8.710;2023-02-22T01:53:15;6.61;92.91
67157;SHT31;54086;50.126;8.710;2023-02-22T01:55:43;6.59;92.77
67157;SHT31;54086;50.126;8.710;2023-02-22T01:58:10;6.61;93.17
67157;SHT31;54086;50.126;8.710;2023-02-22T02:00:36;6.64;93.27
67157;SHT31;54086;50.126;8.710;2023-02-22T02:03:07;6.62;93.21
67157;SHT31;54086;50.126;8.710;2023-02-22T02:05:34;6.55;92.94
67157;SHT31;54086;50.126;8.710;2023-02-22T02:08:09;6.48;93.15
67157;SHT31;54086;50.126;8.710;2023-02-22T02:10:39;6.48;93.23
67157;SHT31;54086;50.126;8.710;2023-02-22T02:13:06;6.31;93.09
67157;SHT31;54086;50.126;8.710;2023-02-22T02:15:32;6.31;93.28
67157;SHT31;54086;50.126;8.710;2023-02-22T02:18:05;6.24;93.38
67157;SHT31;54086;50.126;8.710;2023-02-22T02:32:18;6.25;93.74
67157;SHT31;54086;50.126;8.710;2023-02-22T02:34:53;6.14;93.47
67157;SHT31;54086;50.126;8.710;2023-02-22T02:40:23;6.14;93.49
67157;SHT31;54086;50.126;8.710;2023-02-22T02:43:03;6.22;93.93
67157;SHT31;54086;50.126;8.710;2023-02-22T02:48:10;6.28;93.68
67157;SHT31;54086;50.126;8.710;2023-02-22T02:50:41;6.28;93.82
67157;SHT31;54086;50.126;8.710;2023-02-22T02:53:08;6.25;93.87
67157;SHT31;54086;50.126;8.710;2023-02-22T02:55:35;6.25;93.89
67157;SHT31;54086;50.126;8.710;2023-02-22T02:58:07;6.20;93.78
67157;SHT31;54086;50.126;8.710;2023-02-22T03:00:37;6.21;93.73
67157;SHT31;54086;50.126;8.710;2023-02-22T03:09:09;6.21;93.68
67157;SHT31;54086;50.126;8.710;2023-02-22T03:12:04;6.21;93.89
67157;SHT31;54086;50.126;8.710;2023-02-22T03:14:38;6.31;93.61
67157;SHT31;54086;50.126;8.710;2023-02-22T03:20:12;6.22;93.53
67157;SHT31;54086;50.126;8.710;2023-02-22T03:23:02;6.24;93.49
67157;SHT31;54086;50.126;8.710;2023-02-22T03:25:34;6.24;93.34
67157;SHT31;54086;50.126;8.710;2023-02-22T03:28:07;6.21;93.06
67157;SHT31;54086;50.126;8.710;2023-02-22T03:30:46;6.14;93.03
67157;SHT31;54086;50.126;8.710;2023-02-22T03:35:57;6.17;92.74
67157;SHT31;54086;50.126;8.710;2023-02-22T03:38:27;6.07;92.94
67157;SHT31;54086;50.126;8.710;2023-02-22T03:40:55;6.06;93.19
67157;SHT31;54086;50.126;8.710;2023-02-22T03:43:37;5.97;93.51
67157;SHT31;54086;50.126;8.710;2023-02-22T03:46:03;5.96;93.29
67157;SHT31;54086;50.126;8.710;2023-02-22T03:48:51;5.89;93.55
67157;SHT31;54086;50.126;8.710;2023-02-22T03:51:18;5.93;93.35
67157;SHT31;54086;50.126;8.710;2023-02-22T03:53:45;5.93;93.34
67157;SHT31;54086;50.126;8.710;2023-02-22T03:56:17;5.90;93.18
67157;SHT31;54086;50.126;8.710;2023-02-22T03:58:45;5.93;93.33
67157;SHT31;54086;50.126;8.710;2023-02-22T04:01:15;5.94;93.42
67157;SHT31;54086;50.126;8.710;2023-02-22T04:03:41;5.94;93.79
67157;SHT31;54086;50.126;8.710;2023-02-22T04:06:07;6.07;93.94
67157;SHT31;54086;50.126;8.710;2023-02-22T04:08:33;6.11;93.82
67157;SHT31;54086;50.126;8.710;2023-02-22T04:10:59;6.03;93.60
67157;SHT31;54086;50.126;8.710;2023-02-22T04:13:25;6.07;93.95
67157;SHT31;54086;50.126;8.710;2023-02-22T04:15:51;6.00;93.73
67157;SHT31;54086;50.126;8.710;2023-02-22T04:18:17;6.06;94.09
67157;SHT31;54086;50.126;8.710;2023-02-22T04:20:42;6.14;93.95
67157;SHT31;54086;50.126;8.710;2023-02-22T04:23:09;6.11;93.89
67157;SHT31;54086;50.126;8.710;2023-02-22T04:25:34;6.09;93.45
67157;SHT31;54086;50.126;8.710;2023-02-22T04:28:00;5.99;93.32
67157;SHT31;54086;50.126;8.710;2023-02-22T04:30:25;5.94;93.40
67157;SHT31;54086;50.126;8.710;2023-02-22T04:32:52;5.86;93.53
67157;SHT31;54086;50.126;8.710;2023-02-22T04:35:17;5.91;93.57
67157;SHT31;54086;50.126;8.710;2023-02-22T04:37:43;5.86;93.27
67157;SHT31;54086;50.126;8.710;2023-02-22T04:40:08;5.86;93.41
67157;SHT31;54086;50.126;8.710;2023-02-22T04:42:36;5.81;93.34
67157;SHT31;54086;50.126;8.710;2023-02-22T04:45:03;5.76;93.08
67157;SHT31;54086;50.126;8.710;2023-02-22T04:47:28;5.72;92.73
67157;SHT31;54086;50.126;8.710;2023-02-22T04:49:54;5.76;92.59
67157;SHT31;54086;50.126;8.710;2023-02-22T04:52:20;5.79;92.59
67157;SHT31;54086;50.126;8.710;2023-02-22T04:54:45;5.72;92.36
67157;SHT31;54086;50.126;8.710;2023-02-22T04:57:11;5.69;92.56
67157;SHT31;54086;50.126;8.710;2023-02-22T04:59:36;5.69;92.75
67157;SHT31;54086;50.126;8.710;2023-02-22T05:02:02;5.59;92.71
67157;SHT31;54086;50.126;8.710;2023-02-22T05:04:28;5.38;92.55
67157;SHT31;54086;50.126;8.710;2023-02-22T05:06:54;5.41;92.91
67157;SHT31;54086;50.126;8.710;2023-02-22T05:09:20;5.46;92.71
67157;SHT31;54086;50.126;8.710;2023-02-22T05:11:45;5.42;92.66
67157;SHT31;54086;50.126;8.710;2023-02-22T05:14:10;5.39;92.85
67157;SHT31;54086;50.126;8.710;2023-02-22T05:16:36;5.36;92.73
67157;SHT31;54086;50.126;8.710;2023-02-22T05:19:01;5.38;92.75
67157;SHT31;54086;50.126;8.710;2023-02-22T05:21:27;5.39;92.80
67157;SHT31;54086;50.126;8.710;2023-02-22T05:23:52;5.41;92.84
67157;SHT31;54086;50.126;8.710;2023-02-22T05:26:17;5.39;92.91
67157;SHT31;54086;50.126;8.710;2023-02-22T05:28:43;5.42;92.71
67157;SHT31;54086;50.126;8.710;2023-02-22T05:31:08;5.32;92.53
67157;SHT31;54086;50.126;8.710;2023-02-22T05:33:34;5.20;92.66
67157;SHT31;54086;50.126;8.710;2023-02-22T05:35:59;5.15;92.91
67157;SHT31;54086;50.126;8.710;2023-02-22T05:38:25;5.12;92.85
67157;SHT31;54086;50.126;8.710;2023-02-22T05:40:50;5.17;93.12
67157;SHT31;54086;50.126;8.710;2023-02-22T05:43:16;5.24;93.00
67157;SHT31;54086;50.126;8.710;2023-02-22T05:45:41;5.39;92.79
67157;SHT31;54086;50.126;8.710;2023-02-22T05:48:07;5.31;92.80
67157;SHT31;54086;50.126;8.710;2023-02-22T05:50:33;5.12;92.77
67157;SHT31;54086;50.126;8.710;2023-02-22T05:52:58;5.18;92.91
67157;SHT31;54086;50.126;8.710;2023-02-22T05:55:24;5.12;93.01
67157;SHT31;54086;50.126;8.710;2023-02-22T05:57:50;4.98;93.19
67157;SHT31;54086;50.126;8.710;2023-02-22T06:00:18;4.95;93.21
67157;SHT31;54086;50.126;8.710;2023-02-22T06:02:44;4.94;93.27
67157;SHT31;54086;50.126;8.710;2023-02-22T06:05:09;4.98;93.28
67157;SHT31;54086;50.126;8.710;2023-02-22T06:07:35;4.88;93.33
67157;SHT31;54086;50.126;8.710;2023-02-22T06:10:00;4.83;93.64
67157;SHT31;54086;50.126;8.710;2023-02-22T06:12:25;4.84;93.74
67157;SHT31;54086;50.126;8.710;2023-02-22T06:14:51;4.80;93.79
67157;SHT31;54086;50.126;8.710;2023-02-22T06:17:16;4.83;93.82
67157;SHT31;54086;50.126;8.710;2023-02-22T06:19:42;4.85;93.75
67157;SHT31;54086;50.126;8.710;2023-02-22T06:22:07;4.84;93.63
67157;SHT31;54086;50.126;8.710;2023-02-22T06:24:32;4.85;93.65
67157;SHT31;54086;50.126;8.710;2023-02-22T06:27:00;4.85;93.58
67157;SHT31;54086;50.126;8.710;2023-02-22T06:29:27;4.92;93.62
67157;SHT31;54086;50.126;8.710;2023-02-22T06:31:53;4.83;93.18
67157;SHT31;54086;50.126;8.710;2023-02-22T06:34:19;4.73;93.12
67157;SHT31;54086;50.126;8.710;2023-02-22T06:36:46;4.63;93.13
67157;SHT31;54086;50.126;8.710;2023-02-22T06:39:13;4.61;93.15
67157;SHT31;54086;50.126;8.710;2023-02-22T06:41:40;4.56;93.14
67157;SHT31;54086;50.126;8.710;2023-02-22T06:44:07;4.59;93.29
67157;SHT31;54086;50.126;8.710;2023-02-22T06:46:32;4.60;93.19
67157;SHT31;54086;50.126;8.710;2023-02-22T06:48:57;4.57;92.95
67157;SHT31;54086;50.126;8.710;2023-02-22T06:51:26;4.61;92.87
67157;SHT31;54086;50.126;8.710;2023-02-22T06:53:52;4.60;92.96
67157;SHT31;54086;50.126;8.710;2023-02-22T06:56:18;4.76;93.11
67157;SHT31;54086;50.126;8.710;2023-02-22T06:58:43;4.84;93.05
67157;SHT31;54086;50.126;8.710;2023-02-22T07:01:09;4.79;92.70
67157;SHT31;54086;50.126;8.710;2023-02-22T07:03:34;4.79;92.84
67157;SHT31;54086;50.126;8.710;2023-02-22T07:06:00;4.74;92.99
67157;SHT31;54086;50.126;8.710;2023-02-22T07:08:27;4.77;93.21
67157;SHT31;54086;50.126;8.710;2023-02-22T07:10:52;4.70;93.16
67157;SHT31;54086;50.126;8.710;2023-02-22T07:13:18;4.66;93.12
67157;SHT31;54086;50.126;8.710;2023-02-22T07:15:43;4.70;93.04
67157;SHT31;54086;50.126;8.710;2023-02-22T07:18:09;4.69;92.87
67157;SHT31;54086;50.126;8.710;2023-02-22T07:20:34;4.67;92.75
67157;SHT31;54086;50.126;8.710;2023-02-22T07:23:00;4.54;92.50
67157;SHT31;54086;50.126;8.710;2023-02-22T07:25:26;4.54;92.54
67157;SHT31;54086;50.126;8.710;2023-02-22T07:27:51;4.49;92.60
67157;SHT31;54086;50.126;8.710;2023-02-22T07:30:28;4.50;92.52
67157;SHT31;54086;50.126;8.710;2023-02-22T07:32:56;4.45;92.45
67157;SHT31;54086;50.126;8.710;2023-02-22T07:35:30;4.52;92.61
67157;SHT31;54086;50.126;8.710;2023-02-22T07:37:56;4.52;92.52
67157;SHT31;54086;50.126;8.710;2023-02-22T07:40:22;4.60;92.45
67157;SHT31;54086;50.126;8.710;2023-02-22T07:42:58;4.73;92.21
67157;SHT31;54086;50.126;8.710;2023-02-22T07:45:31;4.79;92.03
67157;SHT31;54086;50.126;8.710;2023-02-22T07:47:58;4.92;91.85
67157;SHT31;54086;50.126;8.710;2023-02-22T07:50:26;4.90;91.61
67157;SHT31;54086;50.126;8.710;2023-02-22T07:52:54;4.94;91.35
67157;SHT31;54086;50.126;8.710;2023-02-22T07:55:22;4.88;91.59
67157;SHT31;54086;50.126;8.710;2023-02-22T07:57:49;4.87;91.29
67157;SHT31;54086;50.126;8.710;2023-02-22T08:00:25;4.83;91.19
67157;SHT31;54086;50.126;8.710;2023-02-22T08:02:50;4.74;91.22
67157;SHT31;54086;50.126;8.710;2023-02-22T08:05:18;4.84;91.43
67157;SHT31;54086;50.126;8.710;2023-02-22T08:07:43;4.92;91.29
67157;SHT31;54086;50.126;8.710;2023-02-22T08:10:09;4.88;91.16
67157;SHT31;54086;50.126;8.710;2023-02-22T08:12:36;5.05;90.95
67157;SHT31;54086;50.126;8.710;2023-02-22T08:15:07;5.12;90.80
67157;SHT31;54086;50.126;8.710;2023-02-22T08:17:33;5.18;90.66
67157;SHT31;54086;50.126;8.710;2023-02-22T08:19:59;5.27;90.71
67157;SHT31;54086;50.126;8.710;2023-02-22T08:22:24;5.34;90.40
67157;SHT31;54086;50.126;8.710;2023-02-22T08:24:51;5.38;90.45
67157;SHT31;54086;50.126;8.710;2023-02-22T08:27:26;5.31;90.39
67157;SHT31;54086;50.126;8.710;2023-02-22T08:29:52;5.34;90.54
67157;SHT31;54086;50.126;8.710;2023-02-22T08:32:18;5.43;90.56
67157;SHT31;54086;50.126;8.710;2023-02-22T08:34:44;5.42;90.60
67157;SHT31;54086;50.126;8.710;2023-02-22T08:37:09;5.56;90.53
67157;SHT31;54086;50.126;8.710;2023-02-22T08:39:35;5.60;90.43
67157;SHT31;54086;50.126;8.710;2023-02-22T08:42:00;5.56;90.53
67157;SHT31;54086;50.126;8.710;2023-02-22T08:44:26;5.66;90.50
67157;SHT31;54086;50.126;8.710;2023-02-22T08:46:51;5.66;90.55
67157;SHT31;54086;50.126;8.710;2023-02-22T08:49:16;5.79;90.62
67157;SHT31;54086;50.126;8.710;2023-02-22T08:51:42;5.90;90.48
67157;SHT31;54086;50.126;8.710;2023-02-22T08:54:07;5.99;90.25
67157;SHT31;54086;50.126;8.710;2023-02-22T08:56:33;6.13;90.24
67157;SHT31;54086;50.126;8.710;2023-02-22T08:58:58;6.14;90.08
67157;SHT31;54086;50.126;8.710;2023-02-22T09:01:24;6.13;90.49
67157;SHT31;54086;50.126;8.710;2023-02-22T09:03:50;6.14;90.65
67157;SHT31;54086;50.126;8.710;2023-02-22T09:06:17;5.81;91.68
67157;SHT31;54086;50.126;8.710;2023-02-22T09:08:42;5.63;93.05
67157;SHT31;54086;50.126;8.710;2023-02-22T09:11:08;5.90;92.48
67157;SHT31;54086;50.126;8.710;2023-02-22T09:13:33;6.07;91.37
67157;SHT31;54086;50.126;8.710;2023-02-22T09:15:59;5.89;91.65
67157;SHT31;54086;50.126;8.710;2023-02-22T09:18:26;5.76;91.56
67157;SHT31;54086;50.126;8.710;2023-02-22T09:20:51;6.10;91.36
67157;SHT31;54086;50.126;8.710;2023-02-22T09:23:17;6.00;91.19
67157;SHT31;54086;50.126;8.710;2023-02-22T09:25:45;6.20;91.06
67157;SHT31;54086;50.126;8.710;2023-02-22T09:28:11;6.30;90.49
67157;SHT31;54086;50.126;8.710;2023-02-22T09:30:37;6.28;90.39
67157;SHT31;54086;50.126;8.710;2023-02-22T09:33:11;6.21;90.45
67157;SHT31;54086;50.126;8.710;2023-02-22T09:35:38;6.14;90.62
67157;SHT31;54086;50.126;8.710;2023-02-22T09:38:07;6.06;90.77
67157;SHT31;54086;50.126;8.710;2023-02-22T09:40:34;5.89;91.26
67157;SHT31;54086;50.126;8.710;2023-02-22T09:45:39;5.90;91.95
67157;SHT31;54086;50.126;8.710;2023-02-22T09:48:10;5.94;91.32
67157;SHT31;54086;50.126;8.710;2023-02-22T09:50:41;6.07;91.25
67157;SHT31;54086;50.126;8.710;2023-02-22T09:53:15;5.86;91.29
67157;SHT31;54086;50.126;8.710;2023-02-22T09:55:50;5.85;91.58
67157;SHT31;54086;50.126;8.710;2023-02-22T09:58:25;5.89;92.05
67157;SHT31;54086;50.126;8.710;2023-02-22T10:00:57;6.44;91.18
67157;SHT31;54086;50.126;8.710;2023-02-22T10:03:48;6.90;90.08
67157;SHT31;54086;50.126;8.710;2023-02-22T10:06:19;7.23;88.64
67157;SHT31;54086;50.126;8.710;2023-02-22T10:08:46;7.14;88.13
67157;SHT31;54086;50.126;8.710;2023-02-22T10:13:58;6.90;88.63
67157;SHT31;54086;50.126;8.710;2023-02-22T10:16:36;6.97;88.38
67157;SHT31;54086;50.126;8.710;2023-02-22T10:25:05;7.30;87.80
67157;SHT31;54086;50.126;8.710;2023-02-22T10:27:40;7.32;87.61
67157;SHT31;54086;50.126;8.710;2023-02-22T10:30:20;7.75;86.81
67157;SHT31;54086;50.126;8.710;2023-02-22T10:32:54;7.93;86.47
67157;SHT31;54086;50.126;8.710;2023-02-22T10:35:24;7.82;86.28
67157;SHT31;54086;50.126;8.710;2023-02-22T10:37:57;8.05;85.98
67157;SHT31;54086;50.126;8.710;2023-02-22T10:40:25;7.96;86.44
67157;SHT31;54086;50.126;8.710;2023-02-22T10:43:00;7.85;86.55
67157;SHT31;54086;50.126;8.710;2023-02-22T10:45:28;7.95;86.63
67157;SHT31;54086;50.126;8.710;2023-02-22T10:48:01;8.00;86.37
67157;SHT31;54086;50.126;8.710;2023-02-22T10:50:33;8.19;86.20
67157;SHT31;54086;50.126;8.710;2023-02-22T10:52:59;8.43;85.85
67157;SHT31;54086;50.126;8.710;2023-02-22T10:55:25;8.82;84.94
67157;SHT31;54086;50.126;8.710;2023-02-22T10:57:59;8.98;84.59
67157;SHT31;54086;50.126;8.710;2023-02-22T11:00:30;9.29;83.69
67157;SHT31;54086;50.126;8.710;2023-02-22T11:02:59;9.59;82.77
67157;SHT31;54086;50.126;8.710;2023-02-22T11:05:32;9.98;82.07
67157;SHT31;54086;50.126;8.710;2023-02-22T11:10:41;9.97;82.01
67157;SHT31;54086;50.126;8.710;2023-02-22T11:13:37;9.90;81.83
67157;SHT31;54086;50.126;8.710;2023-02-22T11:16:26;10.42;81.08
67157;SHT31;54086;50.126;8.710;2023-02-22T11:19:23;10.65;80.06
67157;SHT31;54086;50.126;8.710;2023-02-22T11:21:52;10.87;79.49
67157;SHT31;54086;50.126;8.710;2023-02-22T11:24:21;10.87;79.55
67157;SHT31;54086;50.126;8.710;2023-02-22T11:26:52;11.54;78.44
67157;SHT31;54086;50.126;8.710;2023-02-22T11:29:24;11.59;77.14
67157;SHT31;54086;50.126;8.710;2023-02-22T11:31:51;11.38;77.88
67157;SHT31;54086;50.126;8.710;2023-02-22T11:34:52;11.35;78.24
67157;SHT31;54086;50.126;8.710;2023-02-22T11:37:31;11.62;77.77
67157;SHT31;54086;50.126;8.710;2023-02-22T11:40:16;11.88;76.91
67157;SHT31;54086;50.126;8.710;2023-02-22T11:42:45;11.52;77.24
67157;SHT31;54086;50.126;8.710;2023-02-22T11:45:17;11.77;76.95
67157;SHT31;54086;50.126;8.710;2023-02-22T11:47:51;12.10;76.07
67157;SHT31;54086;50.126;8.710;2023-02-22T11:50:32;12.09;75.48
67157;SHT31;54086;50.126;8.710;2023-02-22T12:15:02;12.10;74.32
67157;SHT31;54086;50.126;8.710;2023-02-22T12:20:19;12.02;75.12
67157;SHT31;54086;50.126;8.710;2023-02-22T12:25:40;12.51;73.83
67157;SHT31;54086;50.126;8.710;2023-02-22T12:28:28;12.27;74.49
67157;SHT31;54086;50.126;8.710;2023-02-22T12:34:12;12.60;73.97
67157;SHT31;54086;50.126;8.710;2023-02-22T12:36:54;12.51;74.09
67157;SHT31;54086;50.126;8.710;2023-02-22T12:41:57;12.43;74.34
67157;SHT31;54086;50.126;8.710;2023-02-22T12:44:34;12.46;74.66
67157;SHT31;54086;50.126;8.710;2023-02-22T12:47:01;12.17;75.01
67157;SHT31;54086;50.126;8.710;2023-02-22T12:49:39;12.41;74.91
67157;SHT31;54086;50.126;8.710;2023-02-22T12:59:56;12.64;74.07
67157;SHT31;54086;50.126;8.710;2023-02-22T13:02:44;12.77;73.05
67157;SHT31;54086;50.126;8.710;2023-02-22T13:05:17;12.92;72.76
67157;SHT31;54086;50.126;8.710;2023-02-22T13:07:58;12.97;72.48
67157;SHT31;54086;50.126;8.710;2023-02-22T13:16:25;13.02;71.93
67157;SHT31;54086;50.126;8.710;2023-02-22T13:21:47;12.71;72.39
67157;SHT31;54086;50.126;8.710;2023-02-22T13:27:02;12.73;72.50
67157;SHT31;54086;50.126;8.710;2023-02-22T13:29:37;12.97;72.07
67157;SHT31;54086;50.126;8.710;2023-02-22T13:40:39;13.32;70.46
67157;SHT31;54086;50.126;8.710;2023-02-22T13:45:57;13.59;69.81
67157;SHT31;54086;50.126;8.710;2023-02-22T13:48:31;13.66;69.33
67157;SHT31;54086;50.126;8.710;2023-02-22T13:51:08;13.52;69.48
67157;SHT31;54086;50.126;8.710;2023-02-22T13:53:51;13.49;69.58
67157;SHT31;54086;50.126;8.710;2023-02-22T13:56:21;13.53;69.38
67157;SHT31;54086;50.126;8.710;2023-02-22T13:58:54;13.60;69.34
67157;SHT31;54086;50.126;8.710;2023-02-22T14:01:44;13.77;68.56
67157;SHT31;54086;50.126;8.710;2023-02-22T14:22:47;13.81;68.13
67157;SHT31;54086;50.126;8.710;2023-02-22T14:25:39;13.91;68.01
67157;SHT31;54086;50.126;8.710;2023-02-22T14:28:32;13.97;67.60
67157;SHT31;54086;50.126;8.710;2023-02-22T14:31:12;13.96;67.49
67157;SHT31;54086;50.126;8.710;2023-02-22T14:36:20;13.81;67.55
67157;SHT31;54086;50.126;8.710;2023-02-22T14:38:48;13.81;67.24
67157;SHT31;54086;50.126;8.710;2023-02-22T14:41:21;13.81;67.21
67157;SHT31;54086;50.126;8.710;2023-02-22T14:43:52;13.83;67.61
67157;SHT31;54086;50.126;8.710;2023-02-22T14:46:25;13.84;67.44
67157;SHT31;54086;50.126;8.710;2023-02-22T14:48:58;13.66;67.63
67157;SHT31;54086;50.126;8.710;2023-02-22T14:51:28;13.70;67.89
67157;SHT31;54086;50.126;8.710;2023-02-22T14:56:51;13.59;68.02
67157;SHT31;54086;50.126;8.710;2023-02-22T14:59:25;13.53;68.40
67157;SHT31;54086;50.126;8.710;2023-02-22T15:02:11;13.50;68.40
67157;SHT31;54086;50.126;8.710;2023-02-22T15:04:37;13.39;68.80
67157;SHT31;54086;50.126;8.710;2023-02-22T15:09:52;13.52;69.05
67157;SHT31;54086;50.126;8.710;2023-02-22T15:12:27;13.57;68.99
67157;SHT31;54086;50.126;8.710;2023-02-22T15:15:30;13.56;68.96
67157;SHT31;54086;50.126;8.710;2023-02-22T15:17:57;13.50;69.32
67157;SHT31;54086;50.126;8.710;2023-02-22T15:20:23;13.66;69.51
67157;SHT31;54086;50.126;8.710;2023-02-22T15:22:50;13.57;69.66
67157;SHT31;54086;50.126;8.710;2023-02-22T15:25:23;13.39;70.46
67157;SHT31;54086;50.126;8.710;2023-02-22T15:27:50;13.29;70.81
67157;SHT31;54086;50.126;8.710;2023-02-22T15:32:44;13.08;71.80
67157;SHT31;54086;50.126;8.710;2023-02-22T15:35:30;13.08;71.80
67157;SHT31;54086;50.126;8.710;2023-02-22T15:40:25;13.09;71.98
67157;SHT31;54086;50.126;8.710;2023-02-22T15:43:02;13.11;71.55
67157;SHT31;54086;50.126;8.710;2023-02-22T15:45:29;13.11;71.83
67157;SHT31;54086;50.126;8.710;2023-02-22T15:47:56;13.05;71.48
67157;SHT31;54086;50.126;8.710;2023-02-22T15:50:28;13.02;71.57
67157;SHT31;54086;50.126;8.710;2023-02-22T15:53:02;12.91;71.68
67157;SHT31;54086;50.126;8.710;2023-02-22T15:58:30;12.88;71.87
67157;SHT31;54086;50.126;8.710;2023-02-22T16:01:03;12.81;72.30
67157;SHT31;54086;50.126;8.710;2023-02-22T16:03:42;12.83;72.59
67157;SHT31;54086;50.126;8.710;2023-02-22T16:06:14;12.94;73.02
67157;SHT31;54086;50.126;8.710;2023-02-22T16:08:46;12.94;72.26
67157;SHT31;54086;50.126;8.710;2023-02-22T16:11:37;12.95;72.90
67157;SHT31;54086;50.126;8.710;2023-02-22T16:14:27;12.78;72.89
67157;SHT31;54086;50.126;8.710;2023-02-22T16:17:18;12.74;73.33
67157;SHT31;54086;50.126;8.710;2023-02-22T16:19:50;12.63;73.72
67157;SHT31;54086;50.126;8.710;2023-02-22T16:22:32;12.53;73.75
67157;SHT31;54086;50.126;8.710;2023-02-22T16:25:31;12.50;74.30
67157;SHT31;54086;50.126;8.710;2023-02-22T16:28:02;12.46;74.47
67157;SHT31;54086;50.126;8.710;2023-02-22T16:30:38;12.43;74.80
67157;SHT31;54086;50.126;8.710;2023-02-22T16:33:08;12.41;74.92
67157;SHT31;54086;50.126;8.710;2023-02-22T16:35:38;12.38;75.24
67157;SHT31;54086;50.126;8.710;2023-02-22T16:38:06;12.29;75.61
67157;SHT31;54086;50.126;8.710;2023-02-22T16:40:38;12.17;75.97
67157;SHT31;54086;50.126;8.710;2023-02-22T16:43:11;12.16;76.25
67157;SHT31;54086;50.126;8.710;2023-02-22T16:45:38;12.13;76.55
67157;SHT31;54086;50.126;8.710;2023-02-22T16:48:13;12.06;76.71
67157;SHT31;54086;50.126;8.710;2023-02-22T16:50:39;12.02;76.85
67157;SHT31;54086;50.126;8.710;2023-02-22T16:53:05;11.98;77.21
67157;SHT31;54086;50.126;8.710;2023-02-22T16:55:31;11.95;77.28
67157;SHT31;54086;50.126;8.710;2023-02-22T16:57:56;11.95;77.34
67157;SHT31;54086;50.126;8.710;2023-02-22T17:00:25;11.92;77.50
67157;SHT31;54086;50.126;8.710;2023-02-22T17:03:01;11.83;77.47
67157;SHT31;54086;50.126;8.710;2023-02-22T17:05:31;11.78;77.67
67157;SHT31;54086;50.126;8.710;2023-02-22T17:08:00;11.77;77.89
67157;SHT31;54086;50.126;8.710;2023-02-22T17:10:26;11.75;77.86
67157;SHT31;54086;50.126;8.710;2023-02-22T17:12:51;11.68;78.05
67157;SHT31;54086;50.126;8.710;2023-02-22T17:15:26;11.67;78.22
67157;SHT31;54086;50.126;8.710;2023-02-22T17:17:53;11.64;78.33
67157;SHT31;54086;50.126;8.710;2023-02-22T17:20:19;11.62;78.48
67157;SHT31;54086;50.126;8.710;2023-02-22T17:22:57;11.62;78.56
67157;SHT31;54086;50.126;8.710;2023-02-22T17:25:26;11.62;78.70
67157;SHT31;54086;50.126;8.710;2023-02-22T17:27:52;11.67;78.53
67157;SHT31;54086;50.126;8.710;2023-02-22T17:30:18;11.67;78.49
67157;SHT31;54086;50.126;8.710;2023-02-22T17:32:49;11.68;78.66
67157;SHT31;54086;50.126;8.710;2023-02-22T17:35:17;11.68;78.76
67157;SHT31;54086;50.126;8.710;2023-02-22T17:37:44;11.67;78.72
67157;SHT31;54086;50.126;8.710;2023-02-22T17:40:10;11.58;78.67
67157;SHT31;54086;50.126;8.710;2023-02-22T17:42:42;11.52;78.89
67157;SHT31;54086;50.126;8.710;2023-02-22T17:45:10;11.52;78.90
67157;SHT31;54086;50.126;8.710;2023-02-22T17:47:42;11.52;78.90
67157;SHT31;54086;50.126;8.710;2023-02-22T17:50:10;11.45;78.97
67157;SHT31;54086;50.126;8.710;2023-02-22T17:52:37;11.48;79.15
67157;SHT31;54086;50.126;8.710;2023-02-22T17:55:04;11.48;79.13
67157;SHT31;54086;50.126;8.710;2023-02-22T17:57:30;11.51;79.25
67157;SHT31;54086;50.126;8.710;2023-02-22T17:59:57;11.52;79.40
67157;SHT31;54086;50.126;8.710;2023-02-22T18:02:23;11.54;79.43
67157;SHT31;54086;50.126;8.710;2023-02-22T18:04:48;11.45;79.75
67157;SHT31;54086;50.126;8.710;2023-02-22T18:07:13;11.42;79.80
67157;SHT31;54086;50.126;8.710;2023-02-22T18:09:43;11.37;80.14
67157;SHT31;54086;50.126;8.710;2023-02-22T18:12:08;11.24;80.39
67157;SHT31;54086;50.126;8.710;2023-02-22T18:14:34;11.18;80.25
67157;SHT31;54086;50.126;8.710;2023-02-22T18:16:59;11.11;80.54
67157;SHT31;54086;50.126;8.710;2023-02-22T18:19:26;11.03;80.67
67157;SHT31;54086;50.126;8.710;2023-02-22T18:21:53;11.03;80.68
67157;SHT31;54086;50.126;8.710;2023-02-22T18:24:19;10.92;80.97